Typo, Kentucky
Current Conditions -  °F | °C
As of 11:53 AM on Sunday 23 Nov 2014 (Local Time) from KJKL Reporting Station
Overcast Overcast  
Wind Chill: 57°   Ceiling: 6000
Heat Index: 57°   Visibility: 10mi
Dew Point: 41°   Wind: 3mph
Humidity: 55%   Direction: NA
Pressure: 29.92"   Gusts: NA
Location:  37.2415°N, 83.2013°W
Report Text: KJKL 231653Z AUTO VRB03KT 10SM OVC060 14/05 A2992 RMK AO2 SLP127 T01390050
Loading
Personal Weather Stations






























Interactive Weather Map New forecast layout! Learn more

10-Day Weather Forecast

Advertisements
Track Severe Weather on mobile